Time;durP1;ratioP1;P1;durP2;ratioP2;P2;SDS_P1;SDS_P2;PMS_P1;PMS_P2;Temp;Humidity;BMP_temperature;BMP_pressure;BME280_temperature;BME280_humidity;BME280_pressure;Samples;Min_cycle;Max_cycle;Signal;HPM_P1;HPM_P2
2022/05/01 00:01:27;;;;;;;32.47;24.65;;;8.20;99.90;;;;;;5028748;28;20141;-71
2022/05/01 00:03:53;;;;;;;32.75;24.55;;;8.20;99.90;;;;;;5025346;28;20056;-71
2022/05/01 00:06:19;;;;;;;31.15;22.63;;;8.20;99.90;;;;;;5023976;28;20120;-71
2022/05/01 00:08:46;;;;;;;49.45;26.63;;;8.10;99.90;;;;;;5027974;28;20076;-71
2022/05/01 00:11:12;;;;;;;33.78;23.70;;;8.10;99.90;;;;;;5014288;28;20137;-71
2022/05/01 00:13:40;;;;;;;34.20;25.38;;;8.10;99.90;;;;;;5028241;28;20064;-71
2022/05/01 00:16:06;;;;;;;36.20;23.33;;;8.10;99.90;;;;;;5029360;28;20049;-71
2022/05/01 00:18:32;;;;;;;31.85;24.63;;;8.10;99.90;;;;;;5028221;28;20053;-71
2022/05/01 00:20:57;;;;;;;36.85;25.05;;;8.10;99.90;;;;;;5007421;28;20111;-71
2022/05/01 00:23:23;;;;;;;34.20;24.35;;;8.00;99.90;;;;;;5045463;28;20052;-71
2022/05/01 00:25:49;;;;;;;35.22;23.92;;;8.00;99.90;;;;;;5032358;28;20045;-71
2022/05/01 00:28:15;;;;;;;31.45;24.30;;;8.00;99.90;;;;;;5028514;28;20041;-71
2022/05/01 00:30:41;;;;;;;31.70;24.40;;;8.00;99.90;;;;;;5027632;28;20132;-71
2022/05/01 00:38:38;;;;;;;37.42;25.77;;;7.90;99.90;;;;;;5026937;28;20053;-71
2022/05/01 00:41:07;;;;;;;37.03;25.23;;;7.90;99.90;;;;;;5028628;28;20053;-71
2022/05/01 00:43:51;;;;;;;38.15;27.38;;;7.90;99.90;;;;;;5027324;28;20052;-71
2022/05/01 00:46:17;;;;;;;33.38;26.00;;;7.90;99.90;;;;;;5028922;28;20461;-71
2022/05/01 00:48:43;;;;;;;34.75;25.40;;;7.80;99.90;;;;;;5026940;28;20129;-71
2022/05/01 00:51:09;;;;;;;39.65;26.67;;;7.80;99.90;;;;;;5026380;28;20128;-71
2022/05/01 00:53:35;;;;;;;37.75;27.10;;;7.80;99.90;;;;;;5023692;28;20049;-71
2022/05/01 00:56:02;;;;;;;36.72;26.67;;;7.80;99.90;;;;;;5028275;28;20450;-71
2022/05/01 00:58:29;;;;;;;36.00;27.70;;;7.80;99.90;;;;;;5026988;28;20045;-71
2022/05/01 01:00:55;;;;;;;36.53;25.85;;;7.80;99.90;;;;;;5028426;28;20049;-71
2022/05/01 01:03:21;;;;;;;33.92;26.88;;;7.80;99.90;;;;;;5026978;28;20552;-71
2022/05/01 01:05:47;;;;;;;41.42;27.20;;;7.80;99.90;;;;;;5028062;28;20049;-71
2022/05/01 01:08:13;;;;;;;40.67;30.52;;;7.70;99.90;;;;;;5028226;28;20053;-71
2022/05/01 01:10:39;;;;;;;43.08;30.40;;;7.70;99.90;;;;;;5027244;28;20045;-71
2022/05/01 01:13:05;;;;;;;38.88;27.23;;;7.70;99.90;;;;;;5014983;28;20045;-71
2022/05/01 01:15:30;;;;;;;42.40;30.52;;;7.70;99.90;;;;;;5028081;28;20475;-71
2022/05/01 01:17:56;;;;;;;40.25;28.35;;;7.60;99.90;;;;;;5027794;28;20124;-71
2022/05/01 01:20:27;;;;;;;43.80;28.67;;;7.60;99.90;;;;;;5027239;28;20037;-71
2022/05/01 01:22:54;;;;;;;46.47;29.92;;;7.60;99.90;;;;;;5020367;28;20562;-71
2022/05/01 01:25:24;;;;;;;41.00;29.23;;;7.60;99.90;;;;;;5028247;28;20068;-71
2022/05/01 01:27:51;;;;;;;43.10;30.90;;;7.60;99.90;;;;;;5027769;28;20087;-71
2022/05/01 01:33:03;;;;;;;43.22;28.27;;;7.60;99.90;;;;;;5017055;28;20075;-71
2022/05/01 01:35:32;;;;;;;36.22;27.50;;;7.70;99.90;;;;;;5025654;28;20045;-71
2022/05/01 01:38:00;;;;;;;54.03;31.48;;;7.70;99.90;;;;;;5028068;28;20063;-71
2022/05/01 01:40:31;;;;;;;37.10;29.98;;;7.60;99.90;;;;;;5029035;28;20391;-71
2022/05/01 01:42:58;;;;;;;47.42;33.47;;;7.60;99.90;;;;;;5031897;28;21562;-71
2022/05/01 01:45:28;;;;;;;38.50;27.67;;;7.60;99.90;;;;;;5030014;28;20041;-71
2022/05/01 01:47:55;;;;;;;40.65;28.85;;;7.60;99.90;;;;;;5030510;28;20406;-71
2022/05/01 01:50:21;;;;;;;39.50;29.10;;;7.60;99.90;;;;;;5031849;28;20053;-71
2022/05/01 01:52:47;;;;;;;39.85;27.92;;;7.60;99.90;;;;;;5028876;28;20053;-71
2022/05/01 01:55:17;;;;;;;37.10;28.17;;;7.60;99.90;;;;;;5029974;28;20132;-71
2022/05/01 01:57:45;;;;;;;43.83;29.42;;;7.60;99.90;;;;;;5030010;28;20053;-71
2022/05/01 02:00:12;;;;;;;41.58;29.08;;;7.60;99.90;;;;;;5031114;28;20053;-71
2022/05/01 02:02:39;;;;;;;45.38;31.95;;;7.60;99.90;;;;;;5031520;28;20136;-71
2022/05/01 02:05:06;;;;;;;42.17;29.92;;;7.60;99.90;;;;;;5031545;28;20057;-71
2022/05/01 02:07:33;;;;;;;39.13;27.33;;;7.60;99.90;;;;;;5029247;28;20038;-71
2022/05/01 02:09:59;;;;;;;37.22;27.90;;;7.60;99.90;;;;;;5031580;28;20037;-71
2022/05/01 02:12:26;;;;;;;47.47;30.27;;;7.60;99.90;;;;;;5031458;28;20049;-71
2022/05/01 02:14:52;;;;;;;51.15;33.42;;;7.60;99.90;;;;;;5030546;28;20449;-72
2022/05/01 02:17:18;;;;;;;49.75;33.65;;;7.60;99.90;;;;;;5030536;28;20049;-71
2022/05/01 02:19:44;;;;;;;43.20;32.72;;;7.60;99.90;;;;;;5030470;28;20391;-71
2022/05/01 02:22:10;;;;;;;51.30;29.67;;;7.60;99.90;;;;;;5028639;28;20053;-71
2022/05/01 02:24:36;;;;;;;40.88;30.58;;;7.60;99.90;;;;;;5029753;28;20052;-71
2022/05/01 02:27:01;;;;;;;43.28;33.15;;;7.60;99.90;;;;;;5030401;28;20045;-71
2022/05/01 02:29:27;;;;;;;47.65;36.20;;;7.60;99.90;;;;;;5030995;28;20045;-71
2022/05/01 02:31:53;;;;;;;46.35;35.53;;;7.60;99.90;;;;;;5036392;28;20060;-71
2022/05/01 02:34:22;;;;;;;54.00;35.70;;;7.60;99.90;;;;;;5027739;28;20095;-71
2022/05/01 02:36:51;;;;;;;44.17;33.47;;;7.60;99.90;;;;;;5025044;28;20057;-71
2022/05/01 02:39:20;;;;;;;46.03;31.42;;;7.60;99.90;;;;;;5050189;28;20099;-71
2022/05/01 02:41:46;;;;;;;48.58;33.38;;;7.60;99.90;;;;;;5032189;28;20076;-71
2022/05/01 02:44:12;;;;;;;46.65;33.28;;;7.60;99.90;;;;;;5037320;28;20045;-71
2022/05/01 02:46:37;;;;;;;55.90;36.40;;;7.60;99.90;;;;;;5037875;28;20053;-72
2022/05/01 02:49:05;;;;;;;50.55;33.15;;;7.60;99.90;;;;;;5049369;28;20088;-72
2022/05/01 02:51:31;;;;;;;48.45;33.92;;;7.60;99.90;;;;;;5032421;28;20061;-72
2022/05/01 02:53:58;;;;;;;49.05;35.50;;;7.60;99.90;;;;;;5043968;28;20110;-71
2022/05/01 02:56:26;;;;;;;51.17;37.97;;;7.60;99.90;;;;;;5041399;28;20207;-71
2022/05/01 02:58:52;;;;;;;54.75;35.13;;;7.60;99.90;;;;;;5048984;28;20417;-72
2022/05/01 03:01:18;;;;;;;46.83;33.55;;;7.60;99.90;;;;;;5050420;28;20094;-71
2022/05/01 03:03:44;;;;;;;45.35;34.10;;;7.60;99.90;;;;;;5032466;28;20045;-71
2022/05/01 03:06:10;;;;;;;49.03;34.35;;;7.60;99.90;;;;;;5050059;28;20052;-71
2022/05/01 03:08:35;;;;;;;46.35;33.53;;;7.60;99.90;;;;;;5032202;28;20124;-71
2022/05/01 03:11:01;;;;;;;45.55;33.00;;;7.60;99.90;;;;;;5050377;28;20045;-71
2022/05/01 03:13:27;;;;;;;52.20;34.80;;;7.60;99.90;;;;;;5031698;28;20493;-71
2022/05/01 03:15:53;;;;;;;51.30;35.30;;;7.60;99.90;;;;;;5055819;28;20103;-72
2022/05/01 03:23:48;;;;;;;46.53;35.20;;;7.60;99.90;;;;;;5043873;28;20509;-72
2022/05/01 03:26:18;;;;;;;54.05;37.13;;;7.50;99.90;;;;;;5031752;28;20040;-71
2022/05/01 03:28:44;;;;;;;59.85;38.83;;;7.50;99.90;;;;;;5032112;28;20056;-71
2022/05/01 03:31:11;;;;;;;54.15;38.38;;;7.50;99.90;;;;;;5030597;28;20155;-71
2022/05/01 03:33:37;;;;;;;50.78;37.05;;;7.50;99.90;;;;;;5031434;28;20084;-71
2022/05/01 03:36:06;;;;;;;52.65;36.53;;;7.50;99.90;;;;;;5039667;28;20475;-71
2022/05/01 03:38:36;;;;;;;49.03;37.95;;;7.50;99.90;;;;;;5049742;28;20799;-71
2022/05/01 03:41:04;;;;;;;52.35;38.70;;;7.50;99.90;;;;;;5050324;28;20505;-72
2022/05/01 03:43:32;;;;;;;59.03;40.35;;;7.50;99.90;;;;;;5031987;28;20052;-71
2022/05/01 03:45:58;;;;;;;59.30;39.50;;;7.40;99.90;;;;;;5030477;28;20105;-71
2022/05/01 03:48:24;;;;;;;65.68;44.33;;;7.40;99.90;;;;;;5031593;28;20567;-71
2022/05/01 03:50:54;;;;;;;64.97;43.50;;;7.40;99.90;;;;;;5048489;28;20053;-71
2022/05/01 03:53:21;;;;;;;62.10;43.15;;;7.40;99.90;;;;;;5049179;28;20081;-71
2022/05/01 03:55:48;;;;;;;57.03;43.13;;;7.40;99.90;;;;;;5035601;28;20053;-71
2022/05/01 03:58:14;;;;;;;73.32;43.38;;;7.40;99.90;;;;;;5030727;28;20110;-71
2022/05/01 04:00:44;;;;;;;57.42;41.42;;;7.40;99.90;;;;;;5030044;28;20053;-71
2022/05/01 04:03:10;;;;;;;61.85;40.22;;;7.40;99.90;;;;;;5035937;28;20056;-71
2022/05/01 04:05:35;;;;;;;58.63;42.00;;;7.40;99.90;;;;;;5027021;28;20049;-71
2022/05/01 04:08:02;;;;;;;60.40;39.60;;;7.30;99.90;;;;;;5054631;28;20110;-71
2022/05/01 04:10:28;;;;;;;63.38;41.92;;;7.30;99.90;;;;;;5047630;28;20037;-71
2022/05/01 04:12:54;;;;;;;58.03;41.00;;;7.30;99.90;;;;;;5030408;28;20115;-71
2022/05/01 04:15:20;;;;;;;60.15;40.35;;;7.20;99.90;;;;;;5048673;28;20047;-71
2022/05/01 04:17:45;;;;;;;61.42;41.25;;;7.20;99.90;;;;;;5048230;28;20044;-71
2022/05/01 04:20:15;;;;;;;56.88;39.00;;;7.20;99.90;;;;;;5048928;28;20045;-71
2022/05/01 04:22:48;;;;;;;61.97;40.65;;;7.10;99.90;;;;;;5030885;28;20402;-71
2022/05/01 04:25:16;;;;;;;54.75;39.50;;;7.20;99.90;;;;;;5041321;28;20056;-71
2022/05/01 04:27:43;;;;;;;58.03;40.95;;;7.10;99.90;;;;;;5043480;28;20103;-71
2022/05/01 04:30:11;;;;;;;54.15;40.17;;;7.10;99.90;;;;;;5031158;28;20132;-71
2022/05/01 04:32:50;;;;;;;59.45;38.38;;;7.10;99.90;;;;;;5023502;28;20057;-71
2022/05/01 04:35:25;;;;;;;55.80;38.92;;;7.10;99.90;;;;;;5048662;28;20516;-71
2022/05/01 04:37:52;;;;;;;53.42;39.75;;;7.10;99.90;;;;;;5029754;28;20044;-71
2022/05/01 04:40:19;;;;;;;64.57;42.65;;;7.10;99.90;;;;;;5030641;28;20049;-71
2022/05/01 04:42:45;;;;;;;69.78;42.03;;;7.00;99.90;;;;;;5048353;28;20045;-71
2022/05/01 04:45:11;;;;;;;74.15;42.50;;;7.00;99.90;;;;;;5047383;28;20055;-70
2022/05/01 04:47:38;;;;;;;63.30;42.58;;;6.90;99.90;;;;;;5027004;28;20076;-70
2022/05/01 04:50:04;;;;;;;60.25;40.55;;;6.90;99.90;;;;;;5025373;28;20049;-70
2022/05/01 04:52:30;;;;;;;64.28;42.00;;;6.80;99.90;;;;;;5048316;28;20052;-70
2022/05/01 04:54:56;;;;;;;57.28;41.67;;;6.80;99.90;;;;;;5037278;28;20049;-70
2022/05/01 04:57:21;;;;;;;56.55;39.50;;;6.90;99.90;;;;;;5019285;28;20923;-71
2022/05/01 04:59:48;;;;;;;61.70;39.60;;;6.80;99.90;;;;;;5022894;28;20098;-71
2022/05/01 05:02:14;;;;;;;58.10;40.72;;;6.80;99.90;;;;;;5036749;28;20049;-71
2022/05/01 05:04:40;;;;;;;63.50;42.45;;;6.90;99.90;;;;;;5028786;28;20555;-71
2022/05/01 05:07:06;;;;;;;56.60;39.40;;;6.80;99.90;;;;;;5042845;28;20037;-71
2022/05/01 05:10:05;;;;;;;51.88;37.30;;;6.80;99.90;;;;;;5035270;28;20604;-70
2022/05/01 05:12:25;;;;;;;53.58;40.75;;;6.80;99.90;;;;;;5053816;28;20099;-70
2022/05/01 05:14:54;;;;;;;59.17;38.85;;;6.90;99.90;;;;;;5030327;28;20049;-70
2022/05/01 05:17:20;;;;;;;55.67;39.33;;;7.00;99.90;;;;;;5032391;28;20056;-70
2022/05/01 05:19:47;;;;;;;50.30;36.85;;;7.00;99.90;;;;;;5051926;28;20463;-70
2022/05/01 05:22:13;;;;;;;63.80;40.95;;;7.10;99.90;;;;;;5052332;28;20045;-70
2022/05/01 05:24:39;;;;;;;53.88;38.55;;;7.10;99.90;;;;;;5051944;28;20041;-70
2022/05/01 05:27:05;;;;;;;59.60;36.30;;;7.10;99.90;;;;;;5050987;28;20033;-70
2022/05/01 05:29:31;;;;;;;49.53;37.28;;;7.20;99.90;;;;;;5051321;28;20049;-70
2022/05/01 05:31:57;;;;;;;51.67;38.13;;;7.20;99.90;;;;;;5042449;28;20052;-71
2022/05/01 05:34:22;;;;;;;53.00;39.10;;;7.20;99.90;;;;;;5040566;28;20171;-71
2022/05/01 05:36:48;;;;;;;54.05;36.58;;;7.20;99.90;;;;;;5051291;28;20553;-71
2022/05/01 05:39:14;;;;;;;47.83;35.30;;;7.30;99.90;;;;;;5033407;28;20575;-71
2022/05/01 05:41:40;;;;;;;48.42;34.55;;;7.30;99.90;;;;;;5039090;28;20543;-71
2022/05/01 05:44:07;;;;;;;50.92;37.25;;;7.30;99.90;;;;;;5049766;28;20049;-71
2022/05/01 05:46:33;;;;;;;45.33;35.50;;;7.40;99.90;;;;;;5034036;28;20048;-70
2022/05/01 05:48:59;;;;;;;51.25;37.63;;;7.40;99.90;;;;;;5040130;28;20047;-70
2022/05/01 05:51:25;;;;;;;50.42;37.88;;;7.40;99.90;;;;;;5038366;28;20115;-70
2022/05/01 05:53:51;;;;;;;47.78;33.88;;;7.50;99.90;;;;;;5033275;28;20518;-70
2022/05/01 05:56:18;;;;;;;48.25;34.90;;;7.50;99.90;;;;;;5050996;28;20048;-70
2022/05/01 05:58:43;;;;;;;52.83;37.05;;;7.60;99.90;;;;;;5048588;28;20064;-70
2022/05/01 06:01:10;;;;;;;48.47;35.10;;;7.60;99.90;;;;;;5028028;28;20049;-70
2022/05/01 06:03:36;;;;;;;51.72;36.65;;;7.70;99.90;;;;;;5030614;28;20535;-71
2022/05/01 06:06:03;;;;;;;53.72;36.92;;;7.80;99.90;;;;;;5026071;28;20672;-70
2022/05/01 06:08:28;;;;;;;51.13;36.95;;;7.90;99.90;;;;;;5043658;28;20060;-71
2022/05/01 06:10:55;;;;;;;57.00;38.95;;;7.90;99.90;;;;;;5016072;28;20049;-70
2022/05/01 06:13:21;;;;;;;50.40;35.15;;;8.00;99.90;;;;;;5050183;28;20048;-71
2022/05/01 06:15:48;;;;;;;52.25;37.22;;;8.10;99.90;;;;;;5049747;28;20053;-71
2022/05/01 06:18:14;;;;;;;55.60;36.33;;;8.10;99.90;;;;;;5050432;28;20090;-71
2022/05/01 06:20:40;;;;;;;46.38;34.00;;;8.20;99.90;;;;;;5048946;28;20052;-72
2022/05/01 06:23:06;;;;;;;44.88;33.28;;;8.30;99.90;;;;;;5042538;28;20049;-71
2022/05/01 06:25:32;;;;;;;44.70;34.85;;;8.30;99.90;;;;;;5032422;28;20051;-73
2022/05/01 06:27:57;;;;;;;49.58;34.22;;;8.40;99.90;;;;;;5031531;28;20593;-73
2022/05/01 06:30:23;;;;;;;45.75;34.20;;;8.50;99.90;;;;;;5049014;28;20075;-72
2022/05/01 06:32:49;;;;;;;48.38;33.25;;;8.60;99.90;;;;;;5031813;28;20048;-72
2022/05/01 06:35:17;;;;;;;50.42;31.50;;;8.60;99.90;;;;;;5032047;28;20076;-70
2022/05/01 06:37:44;;;;;;;37.75;30.45;;;8.70;99.90;;;;;;5049671;28;20049;-72
2022/05/01 06:40:10;;;;;;;44.28;31.90;;;8.80;99.90;;;;;;5031483;28;20123;-71
2022/05/01 06:42:35;;;;;;;36.25;27.95;;;8.90;99.90;;;;;;5040861;28;20437;-72
2022/05/01 06:45:02;;;;;;;37.35;29.92;;;9.00;99.90;;;;;;5028719;28;20053;-71
2022/05/01 06:47:28;;;;;;;31.00;24.15;;;9.10;99.90;;;;;;5044568;28;20049;-71
2022/05/01 06:49:54;;;;;;;22.98;20.58;;;9.30;99.90;;;;;;5044522;28;20056;-71
2022/05/01 06:52:23;;;;;;;37.03;25.42;;;9.40;99.90;;;;;;5050313;28;20041;-71
2022/05/01 06:54:52;;;;;;;27.08;19.90;;;9.60;99.90;;;;;;5023822;28;20119;-71
2022/05/01 06:57:19;;;;;;;28.77;24.27;;;9.80;99.90;;;;;;5022449;28;20041;-71
2022/05/01 06:59:44;;;;;;;34.58;26.33;;;10.00;99.90;;;;;;5040011;28;20048;-71
2022/05/01 07:02:10;;;;;;;32.40;26.70;;;10.20;99.90;;;;;;5024563;28;20147;-71
2022/05/01 07:04:36;;;;;;;35.58;28.35;;;10.30;99.90;;;;;;5043318;28;20050;-71
2022/05/01 07:07:02;;;;;;;35.13;23.23;;;10.60;99.90;;;;;;5024863;28;20486;-71
2022/05/01 07:09:28;;;;;;;32.50;22.85;;;10.80;99.90;;;;;;5023791;28;20605;-72
2022/05/01 07:11:54;;;;;;;32.95;23.88;;;10.80;99.90;;;;;;5040287;28;20136;-71
2022/05/01 07:14:20;;;;;;;30.58;23.17;;;11.00;99.90;;;;;;5040772;28;20413;-72
2022/05/01 07:16:47;;;;;;;34.35;23.17;;;11.10;99.90;;;;;;5024370;28;20462;-71
2022/05/01 07:19:13;;;;;;;31.70;23.20;;;11.10;99.90;;;;;;5022191;28;20049;-71
2022/05/01 07:21:39;;;;;;;28.67;24.25;;;11.30;99.90;;;;;;5022890;28;20311;-71
2022/05/01 07:24:05;;;;;;;33.95;25.30;;;11.30;99.90;;;;;;5040631;28;20406;-71
2022/05/01 07:26:33;;;;;;;30.33;22.98;;;11.70;99.90;;;;;;5041365;28;20044;-72
2022/05/01 07:29:03;;;;;;;35.63;25.88;;;11.40;99.90;;;;;;5021075;28;20818;-71
2022/05/01 07:31:30;;;;;;;27.13;22.17;;;11.60;99.90;;;;;;5023843;28;20144;-71
2022/05/01 07:33:57;;;;;;;21.98;17.45;;;11.50;99.90;;;;;;5040685;28;20061;-71
2022/05/01 07:36:23;;;;;;;25.73;16.98;;;11.70;99.90;;;;;;5024104;28;20037;-71
2022/05/01 07:38:49;;;;;;;19.92;15.48;;;11.90;99.90;;;;;;5040542;28;20068;-71
2022/05/01 07:41:19;;;;;;;20.80;16.75;;;12.20;99.90;;;;;;5039695;28;20049;-71
2022/05/01 07:43:46;;;;;;;24.77;17.48;;;12.30;99.90;;;;;;5037883;28;20087;-71
2022/05/01 07:46:12;;;;;;;22.10;18.00;;;12.40;99.90;;;;;;5039116;28;20072;-71
2022/05/01 07:48:38;;;;;;;22.23;18.52;;;12.80;99.90;;;;;;5041543;28;20637;-71
2022/05/01 07:51:04;;;;;;;20.10;17.30;;;12.90;99.90;;;;;;5039648;28;20050;-71
2022/05/01 07:53:31;;;;;;;25.23;18.08;;;12.70;99.90;;;;;;5025154;28;20056;-71
2022/05/01 07:55:57;;;;;;;21.08;16.15;;;12.70;99.90;;;;;;5029515;28;20048;-70
2022/05/01 07:58:23;;;;;;;22.60;15.65;;;12.80;99.90;;;;;;5029524;28;20048;-70
2022/05/01 08:00:49;;;;;;;17.27;14.48;;;13.00;99.90;;;;;;5047904;28;20486;-71
2022/05/01 08:05:59;;;;;;;17.60;13.60;;;13.10;99.90;;;;;;5047987;28;20040;-71
2022/05/01 08:08:26;;;;;;;19.23;15.88;;;13.20;99.90;;;;;;5048422;28;20658;-71
2022/05/01 08:10:52;;;;;;;19.35;16.15;;;13.20;99.90;;;;;;5047563;28;20072;-71
2022/05/01 08:13:17;;;;;;;19.63;16.88;;;12.80;99.90;;;;;;5021602;28;20439;-71
2022/05/01 08:15:43;;;;;;;19.30;14.90;;;12.70;99.90;;;;;;5028143;28;20442;-71
2022/05/01 08:21:10;;;;;;;19.75;12.57;;;12.50;99.90;;;;;;5007385;28;20067;-70
2022/05/01 08:23:41;;;;;;;14.48;12.60;;;12.60;99.90;;;;;;5027560;28;20044;-71
2022/05/01 08:26:10;;;;;;;21.70;13.82;;;12.60;99.90;;;;;;5030997;28;20063;-71
2022/05/01 08:28:38;;;;;;;20.40;15.23;;;12.80;99.90;;;;;;5033985;28;20489;-71
2022/05/01 08:31:05;;;;;;;;;;;12.80;99.90;;;;;;5044105;28;20037;-71
2022/05/01 08:33:31;;;;;;;13.60;11.65;;;12.80;97.20;;;;;;5029253;28;20440;-71
2022/05/01 08:35:58;;;;;;;13.90;11.60;;;13.00;99.90;;;;;;5042804;28;20049;-70
2022/05/01 08:38:24;;;;;;;14.73;11.18;;;13.00;99.90;;;;;;5022009;28;20517;-71
2022/05/01 08:40:52;;;;;;;15.57;11.90;;;13.30;98.50;;;;;;5046559;28;20045;-71
2022/05/01 08:43:20;;;;;;;26.63;12.95;;;13.50;93.90;;;;;;5024157;28;20085;-70
2022/05/01 08:46:09;;;;;;;19.63;10.20;;;13.30;92.70;;;;;;5047806;28;20055;-71
2022/05/01 08:49:00;;;;;;;16.10;11.13;;;13.20;87.90;;;;;;5038639;28;20440;-70
2022/05/01 08:51:30;;;;;;;23.02;13.07;;;13.50;95.50;;;;;;5043180;28;20124;-70
2022/05/01 08:53:58;;;;;;;16.60;12.52;;;13.60;93.90;;;;;;5030659;28;20052;-71
2022/05/01 08:56:26;;;;;;;23.73;12.98;;;13.40;92.60;;;;;;5047131;28;20434;-70
2022/05/01 08:58:53;;;;;;;14.55;12.00;;;13.30;94.50;;;;;;5027244;28;20075;-71
2022/05/01 09:01:20;;;;;;;21.45;12.63;;;13.40;96.40;;;;;;5047387;28;20061;-71
2022/05/01 09:03:47;;;;;;;15.07;12.10;;;13.60;94.50;;;;;;5029022;28;20057;-71
2022/05/01 09:06:13;;;;;;;19.65;13.65;;;13.80;92.00;;;;;;5030277;28;20052;-71
2022/05/01 09:08:40;;;;;;;17.05;12.20;;;13.90;92.40;;;;;;5047552;28;20539;-71
2022/05/01 09:13:51;;;;;;;14.57;11.98;;;14.30;91.90;;;;;;5046627;28;20526;-70
2022/05/01 09:16:17;;;;;;;16.95;11.80;;;14.30;90.80;;;;;;5047371;28;20159;-70
2022/05/01 09:18:44;;;;;;;16.05;12.23;;;14.30;91.90;;;;;;5041201;28;20501;-70
2022/05/01 09:21:10;;;;;;;15.55;12.85;;;14.20;91.40;;;;;;5040496;28;20041;-70
2022/05/01 09:23:42;;;;;;;16.88;13.50;;;14.10;91.80;;;;;;5044506;28;20044;-70
2022/05/01 09:26:09;;;;;;;13.68;11.07;;;14.10;87.80;;;;;;5044801;28;20179;-70
2022/05/01 09:28:50;;;;;;;13.57;11.82;;;14.00;91.20;;;;;;5047351;28;20044;-70
2022/05/01 09:31:17;;;;;;;14.68;11.35;;;14.00;89.20;;;;;;5042949;28;20098;-70
2022/05/01 09:33:43;;;;;;;15.30;11.70;;;14.10;94.60;;;;;;5047222;28;20114;-70
2022/05/01 09:36:33;;;;;;;16.70;12.23;;;14.20;94.80;;;;;;5029598;28;20661;-70
2022/05/01 09:39:03;;;;;;;16.80;12.05;;;14.20;81.20;;;;;;5039594;28;20114;-71
2022/05/01 09:41:29;;;;;;;17.13;12.02;;;14.30;89.90;;;;;;5047066;28;20112;-71
2022/05/01 09:43:54;;;;;;;18.50;11.57;;;14.40;86.70;;;;;;5029437;28;20043;-70
2022/05/01 09:46:24;;;;;;;13.38;10.77;;;14.30;90.30;;;;;;5046920;28;20049;-70
2022/05/01 09:48:58;;;;;;;15.85;11.05;;;14.50;91.00;;;;;;5047725;28;20081;-70
2022/05/01 09:51:25;;;;;;;14.40;11.38;;;14.70;90.50;;;;;;5035107;28;20790;-70
2022/05/01 09:53:51;;;;;;;15.38;11.30;;;14.80;82.20;;;;;;5046169;28;20048;-71
2022/05/01 09:56:18;;;;;;;16.67;13.32;;;14.70;83.70;;;;;;5029397;28;20391;-70
2022/05/01 09:58:45;;;;;;;16.42;11.13;;;14.40;79.30;;;;;;5046974;28;20041;-71
2022/05/01 10:01:13;;;;;;;17.38;10.18;;;14.60;77.70;;;;;;5050460;28;20056;-69
2022/05/01 10:03:41;;;;;;;13.43;10.88;;;14.50;79.40;;;;;;5033007;28;20085;-70
2022/05/01 10:06:10;;;;;;;12.45;10.30;;;14.60;78.80;;;;;;5051527;28;20049;-71
2022/05/01 10:08:38;;;;;;;11.15;9.45;;;14.50;74.30;;;;;;5051144;28;20053;-71
2022/05/01 10:11:05;;;;;;;17.67;12.00;;;14.50;75.10;;;;;;5050403;28;20053;-71
2022/05/01 10:13:31;;;;;;;16.30;10.85;;;14.40;73.70;;;;;;5026620;28;20084;-70
2022/05/01 10:15:57;;;;;;;20.83;12.32;;;14.40;74.30;;;;;;5047729;28;20049;-71
2022/05/01 10:18:24;;;;;;;15.60;10.38;;;14.50;73.30;;;;;;5048136;28;20045;-71
2022/05/01 10:20:49;;;;;;;17.02;11.73;;;14.50;74.50;;;;;;5047539;28;20158;-71
2022/05/01 10:23:16;;;;;;;14.40;10.63;;;14.50;72.90;;;;;;5033209;28;20128;-71
2022/05/01 10:26:17;;;;;;;12.43;10.25;;;14.50;74.00;;;;;;5032129;28;20498;-70
2022/05/01 10:28:55;;;;;;;11.82;9.48;;;14.50;72.00;;;;;;5028199;28;20056;-71
2022/05/01 10:35:16;;;;;;;15.18;10.43;;;14.80;71.00;;;;;;5040909;28;20494;-69
2022/05/01 10:37:53;;;;;;;11.13;9.30;;;15.00;67.50;;;;;;5038892;28;20060;-71
2022/05/01 10:40:19;;;;;;;10.73;9.25;;;15.20;68.10;;;;;;5033054;28;20041;-71
2022/05/01 10:42:48;;;;;;;17.45;10.75;;;15.30;67.60;;;;;;5050575;28;20041;-71
2022/05/01 10:45:22;;;;;;;11.05;9.35;;;15.50;67.50;;;;;;5032096;28;20132;-71
2022/05/01 10:47:53;;;;;;;15.57;10.35;;;15.60;66.80;;;;;;5032118;28;20098;-71
2022/05/01 10:50:23;;;;;;;13.15;10.30;;;15.60;65.10;;;;;;5032294;28;20071;-71
2022/05/01 10:53:07;;;;;;;15.15;10.05;;;15.70;64.60;;;;;;5050143;28;20072;-71
2022/05/01 10:55:48;;;;;;;16.02;10.98;;;15.80;63.90;;;;;;5048847;28;20046;-71
2022/05/01 10:58:20;;;;;;;13.70;10.02;;;16.00;61.80;;;;;;5027500;28;20079;-70
2022/05/01 11:00:47;;;;;;;13.98;10.50;;;15.60;62.10;;;;;;5031067;28;20059;-71
2022/05/01 11:03:27;;;;;;;11.57;9.63;;;15.60;64.60;;;;;;5026113;28;20083;-70
2022/05/01 11:06:08;;;;;;;13.68;10.60;;;15.50;64.90;;;;;;5026321;28;20045;-71
2022/05/01 11:08:36;;;;;;;10.93;9.80;;;15.50;63.80;;;;;;5049677;28;20071;-71
2022/05/01 11:11:05;;;;;;;14.88;9.45;;;15.30;63.50;;;;;;5036184;28;20409;-71
2022/05/01 11:13:39;;;;;;;15.70;10.70;;;15.50;64.00;;;;;;5048950;28;20049;-71
2022/05/01 11:16:06;;;;;;;14.90;10.18;;;15.40;63.20;;;;;;5031183;28;20190;-71
2022/05/01 11:18:39;;;;;;;11.40;9.98;;;15.30;63.00;;;;;;5049080;28;20075;-71
2022/05/01 11:21:20;;;;;;;16.40;12.00;;;15.40;61.80;;;;;;5044564;28;20052;-71
2022/05/01 11:23:46;;;;;;;11.57;9.68;;;15.40;62.50;;;;;;5027708;28;20037;-71
2022/05/01 11:26:17;;;;;;;13.82;9.20;;;15.40;63.90;;;;;;5043938;28;20082;-71
2022/05/01 11:28:45;;;;;;;17.17;9.80;;;15.70;63.70;;;;;;5046067;28;20101;-71
2022/05/01 11:31:36;;;;;;;16.67;9.85;;;15.80;63.40;;;;;;5046927;28;20057;-71
2022/05/01 11:34:21;;;;;;;12.43;9.68;;;15.80;61.40;;;;;;5029688;28;20057;-70
2022/05/01 11:36:53;;;;;;;11.15;8.57;;;15.80;59.60;;;;;;5029117;28;20053;-70
2022/05/01 11:39:42;;;;;;;15.68;10.18;;;15.70;62.80;;;;;;5027703;28;20038;-70
2022/05/01 11:42:32;;;;;;;19.10;10.70;;;15.70;61.70;;;;;;5027043;28;20513;-69
2022/05/01 11:45:00;;;;;;;11.23;9.00;;;15.70;61.10;;;;;;5027445;28;20418;-68
2022/05/01 11:47:33;;;;;;;13.37;9.23;;;15.70;62.60;;;;;;5024204;28;20050;-68
2022/05/01 11:49:59;;;;;;;10.40;9.02;;;15.80;64.00;;;;;;5022428;28;20049;-69
2022/05/01 11:52:25;;;;;;;11.75;8.23;;;15.90;63.80;;;;;;5024389;28;20046;-69
2022/05/01 11:54:57;;;;;;;13.88;10.82;;;15.90;63.10;;;;;;5026840;28;20048;-69
2022/05/01 12:03:05;;;;;;;12.20;9.75;;;16.00;63.90;;;;;;5023537;28;20054;-69
2022/05/01 12:05:32;;;;;;;12.15;10.07;;;15.90;61.50;;;;;;5027561;28;20100;-69
2022/05/01 12:07:59;;;;;;;13.68;10.10;;;15.60;60.70;;;;;;5025108;28;20148;-69
2022/05/01 12:10:26;;;;;;;21.52;9.13;;;15.50;61.50;;;;;;5021861;28;20084;-69
2022/05/01 12:12:52;;;;;;;16.42;10.07;;;15.60;62.10;;;;;;5028576;28;20500;-69
2022/05/01 12:15:18;;;;;;;15.18;10.35;;;15.70;63.90;;;;;;5025078;28;20499;-69
2022/05/01 12:17:44;;;;;;;12.52;9.77;;;15.60;61.90;;;;;;5027240;28;20063;-68
2022/05/01 12:20:11;;;;;;;10.90;8.43;;;15.60;62.40;;;;;;5028240;28;20038;-68
2022/05/01 12:22:39;;;;;;;11.95;9.27;;;15.80;62.80;;;;;;5020693;28;20135;-68
2022/05/01 12:25:11;;;;;;;11.50;9.70;;;15.90;63.20;;;;;;5021672;28;20061;-69
2022/05/01 12:27:41;;;;;;;12.77;10.85;;;16.00;62.30;;;;;;5028264;28;20491;-69
2022/05/01 12:30:08;;;;;;;12.10;9.35;;;15.80;59.90;;;;;;5026589;28;20469;-70
2022/05/01 12:32:36;;;;;;;19.42;12.10;;;15.50;59.60;;;;;;5026192;28;20054;-70
2022/05/01 12:35:04;;;;;;;12.75;10.35;;;15.40;60.40;;;;;;5027998;28;20058;-70
2022/05/01 12:37:34;;;;;;;14.32;10.95;;;15.30;59.90;;;;;;5028011;28;20053;-69
2022/05/01 12:40:09;;;;;;;17.00;11.00;;;15.10;60.30;;;;;;5026758;28;20049;-70
2022/05/01 12:45:37;;;;;;;12.20;10.35;;;14.60;60.60;;;;;;5027729;28;20132;-68
2022/05/01 12:48:05;;;;;;;15.02;10.43;;;14.60;61.80;;;;;;5028266;28;20049;-69
2022/05/01 12:50:31;;;;;;;15.15;10.38;;;14.50;61.40;;;;;;5028668;28;20049;-68
2022/05/01 12:53:20;;;;;;;17.75;10.95;;;14.60;60.60;;;;;;5025660;28;20056;-69
2022/05/01 12:55:46;;;;;;;17.92;10.40;;;14.60;60.10;;;;;;5026590;28;20072;-69
2022/05/01 12:58:12;;;;;;;13.20;11.05;;;14.50;60.10;;;;;;5027927;28;20099;-68
2022/05/01 13:00:41;;;;;;;17.70;11.15;;;14.60;60.60;;;;;;5038710;28;20053;-68
2022/05/01 13:03:33;;;;;;;15.73;11.05;;;14.70;60.70;;;;;;5021655;28;20554;-68
2022/05/01 13:06:09;;;;;;;15.32;9.70;;;14.80;60.60;;;;;;5027673;28;20458;-67
2022/05/01 13:08:42;;;;;;;12.55;9.80;;;14.80;60.00;;;;;;5026684;28;20037;-68
2022/05/01 13:11:26;;;;;;;13.38;10.23;;;14.80;60.00;;;;;;5027762;28;20060;-68
2022/05/01 13:13:58;;;;;;;12.68;10.05;;;14.90;60.60;;;;;;5025242;28;20188;-67